This is the latest recevied weather packets stored in our database for station/object AG1T-1. If no packets are shown the sender has not sent any weather packets the latest 1 day(s).
| Time | Temp. | Humidity | Pressure | Rain* | Wind** | Luminosity | Snow |
|---|---|---|---|---|---|---|---|
| 1778006403 | 8.89° C | 90% | 1014.9 hPa | 0.25 mm | 0.89 m/s, 176° | 213 W/m² | - |
| 1778005803 | 8.89° C | 89% | 1014.7 hPa | 0.25 mm | 0.45 m/s, 236° | 67 W/m² | - |
| 1778005203 | 8.89° C | 88% | 1015.1 hPa | 0.25 mm | 0.45 m/s, 307° | 51 W/m² | - |
| 1778004603 | 9.44° C | 87% | 1015.2 hPa | 0.25 mm | 0.89 m/s, 310° | 42 W/m² | - |
| 1778004003 | 9.44° C | 86% | 1014.8 hPa | 0 mm | 0 m/s | 88 W/m² | - |
| 1778003403 | 9.44° C | 85% | 1014.7 hPa | 0 mm | 0 m/s | 174 W/m² | - |
| 1778002803 | 9.44° C | 86% | 1014.8 hPa | 0 mm | 0.45 m/s, 260° | 84 W/m² | - |
| 1778002203 | 9.44° C | 88% | 1014.5 hPa | 0 mm | 0.45 m/s, 257° | 74 W/m² | - |
| 1778001603 | 9.44° C | 89% | 1014.3 hPa | 0 mm | 0.89 m/s, 249° | 200 W/m² | - |
| 1778001003 | 10° C | 91% | 1014.1 hPa | 0 mm | 0.45 m/s, 234° | 299 W/m² | - |
| 1778000403 | 9.44° C | 91% | 1014.1 hPa | 0 mm | 0 m/s | 357 W/m² | - |
| 1777999803 | 9.44° C | 91% | 1014.2 hPa | 0 mm | 0.45 m/s, 257° | 174 W/m² | - |
| 1777999203 | 9.44° C | 91% | 1014.2 hPa | 0 mm | 0.45 m/s, 257° | 116 W/m² | - |
| 1777998603 | 9.44° C | 90% | 1014.1 hPa | 0 mm | 0.89 m/s, 268° | 104 W/m² | - |
| 1777998003 | 9.44° C | 91% | 1014.1 hPa | 0 mm | 0.45 m/s, 276° | 146 W/m² | - |
| 1777997403 | 9.44° C | 90% | 1014.1 hPa | 0 mm | 0.89 m/s, 278° | 178 W/m² | - |
| 1777996803 | 9.44° C | 90% | 1014 hPa | 0 mm | 0.45 m/s, 338° | 53 W/m² | - |
| 1777996203 | 9.44° C | 90% | 1014 hPa | 0 mm | 0.45 m/s, 336° | 30 W/m² | - |
| 1777995603 | 9.44° C | 89% | 1013.8 hPa | 0 mm | 0.89 m/s, 354° | 21 W/m² | - |
| 1777995003 | 9.44° C | 89% | 1013.7 hPa | 0 mm | 0.89 m/s, 349° | 21 W/m² | - |
| 1777994403 | 8.89° C | 88% | 1013.7 hPa | 0 mm | 1.79 m/s, 346° | 49 W/m² | - |
| 1777993803 | 9.44° C | 88% | 1013.8 hPa | 0 mm | 2.68 m/s, 334° | 49 W/m² | - |
| 1777993203 | 10° C | 88% | 1013.8 hPa | 0 mm | 2.24 m/s, 320° | 21 W/m² | - |
| 1777992603 | 10.56° C | 89% | 1013.6 hPa | 0 mm | 2.24 m/s, 317° | 28 W/m² | - |
| 1777992003 | 10.56° C | 87% | 1013.4 hPa | 0 mm | 1.34 m/s, 309° | 42 W/m² | - |
* Rain latest hour (hover to see other rain measurements)
** Current wind speed in m/s (hover to see current wind gust speed)